sensor_id;sensor_type;location;lat;lon;timestamp;P1;durP1;ratioP1;P2;durP2;ratioP2
58069;SDS011;43863;52.256;21.048;2022-08-07T00:04:57;9.10;;;5.40;;
58069;SDS011;43863;52.256;21.048;2022-08-07T00:07:25;10.73;;;5.43;;
58069;SDS011;43863;52.256;21.048;2022-08-07T00:13:02;11.57;;;5.57;;
58069;SDS011;43863;52.256;21.048;2022-08-07T00:25:24;8.85;;;5.30;;
58069;SDS011;43863;52.256;21.048;2022-08-07T00:27:53;6.78;;;4.82;;
58069;SDS011;43863;52.256;21.048;2022-08-07T00:30:25;7.32;;;5.03;;
58069;SDS011;43863;52.256;21.048;2022-08-07T00:32:58;9.05;;;5.18;;
58069;SDS011;43863;52.256;21.048;2022-08-07T00:38:40;8.32;;;5.03;;
58069;SDS011;43863;52.256;21.048;2022-08-07T00:41:08;8.98;;;5.45;;
58069;SDS011;43863;52.256;21.048;2022-08-07T00:53:10;8.90;;;5.28;;
58069;SDS011;43863;52.256;21.048;2022-08-07T00:59:26;9.95;;;5.55;;
58069;SDS011;43863;52.256;21.048;2022-08-07T01:04:56;10.73;;;6.28;;
58069;SDS011;43863;52.256;21.048;2022-08-07T01:07:26;10.18;;;5.93;;
58069;SDS011;43863;52.256;21.048;2022-08-07T01:09:57;11.23;;;6.63;;
58069;SDS011;43863;52.256;21.048;2022-08-07T01:12:37;10.32;;;5.80;;
58069;SDS011;43863;52.256;21.048;2022-08-07T01:15:22;11.10;;;5.82;;
58069;SDS011;43863;52.256;21.048;2022-08-07T01:18:12;8.32;;;5.78;;
58069;SDS011;43863;52.256;21.048;2022-08-07T01:20:47;10.80;;;5.75;;
58069;SDS011;43863;52.256;21.048;2022-08-07T01:23:28;10.15;;;5.78;;
58069;SDS011;43863;52.256;21.048;2022-08-07T01:26:08;8.40;;;5.40;;
58069;SDS011;43863;52.256;21.048;2022-08-07T01:28:48;7.22;;;5.40;;
58069;SDS011;43863;52.256;21.048;2022-08-07T01:31:21;9.75;;;5.95;;
58069;SDS011;43863;52.256;21.048;2022-08-07T01:34:11;8.48;;;5.68;;
58069;SDS011;43863;52.256;21.048;2022-08-07T01:36:47;13.63;;;5.95;;
58069;SDS011;43863;52.256;21.048;2022-08-07T01:39:27;8.50;;;5.70;;
58069;SDS011;43863;52.256;21.048;2022-08-07T01:42:13;12.50;;;5.68;;
58069;SDS011;43863;52.256;21.048;2022-08-07T01:45:03;8.63;;;5.32;;
58069;SDS011;43863;52.256;21.048;2022-08-07T01:47:46;11.95;;;5.68;;
58069;SDS011;43863;52.256;21.048;2022-08-07T01:50:36;9.77;;;5.93;;
58069;SDS011;43863;52.256;21.048;2022-08-07T01:53:10;9.07;;;5.43;;
58069;SDS011;43863;52.256;21.048;2022-08-07T01:55:57;8.70;;;5.72;;
58069;SDS011;43863;52.256;21.048;2022-08-07T01:58:30;9.70;;;5.35;;
58069;SDS011;43863;52.256;21.048;2022-08-07T02:08:05;10.20;;;6.10;;
58069;SDS011;43863;52.256;21.048;2022-08-07T02:10:42;11.40;;;5.57;;
58069;SDS011;43863;52.256;21.048;2022-08-07T02:16:28;9.23;;;5.40;;
58069;SDS011;43863;52.256;21.048;2022-08-07T02:19:03;8.85;;;5.60;;
58069;SDS011;43863;52.256;21.048;2022-08-07T02:21:54;13.30;;;6.20;;
58069;SDS011;43863;52.256;21.048;2022-08-07T02:24:26;11.43;;;6.43;;
58069;SDS011;43863;52.256;21.048;2022-08-07T02:26:58;9.52;;;5.90;;
58069;SDS011;43863;52.256;21.048;2022-08-07T02:29:31;13.98;;;6.38;;
58069;SDS011;43863;52.256;21.048;2022-08-07T02:32:21;11.77;;;6.15;;
58069;SDS011;43863;52.256;21.048;2022-08-07T02:34:56;9.02;;;6.03;;
58069;SDS011;43863;52.256;21.048;2022-08-07T02:40:29;7.03;;;5.93;;
58069;SDS011;43863;52.256;21.048;2022-08-07T02:43:02;7.47;;;6.00;;
58069;SDS011;43863;52.256;21.048;2022-08-07T02:48:32;10.43;;;6.65;;
58069;SDS011;43863;52.256;21.048;2022-08-07T02:51:07;10.60;;;7.03;;
58069;SDS011;43863;52.256;21.048;2022-08-07T02:54:00;6.43;;;5.47;;
58069;SDS011;43863;52.256;21.048;2022-08-07T02:56:30;10.02;;;5.75;;
58069;SDS011;43863;52.256;21.048;2022-08-07T02:59:01;11.38;;;6.53;;
58069;SDS011;43863;52.256;21.048;2022-08-07T03:01:33;7.88;;;5.50;;
58069;SDS011;43863;52.256;21.048;2022-08-07T03:04:13;10.43;;;6.53;;
58069;SDS011;43863;52.256;21.048;2022-08-07T03:06:43;8.70;;;6.30;;
58069;SDS011;43863;52.256;21.048;2022-08-07T03:09:16;8.77;;;5.85;;
58069;SDS011;43863;52.256;21.048;2022-08-07T03:12:06;14.07;;;7.93;;
58069;SDS011;43863;52.256;21.048;2022-08-07T03:14:49;9.07;;;6.50;;
58069;SDS011;43863;52.256;21.048;2022-08-07T03:17:20;15.17;;;7.00;;
58069;SDS011;43863;52.256;21.048;2022-08-07T03:19:52;12.25;;;6.90;;
58069;SDS011;43863;52.256;21.048;2022-08-07T03:22:25;11.38;;;6.68;;
58069;SDS011;43863;52.256;21.048;2022-08-07T03:24:58;12.43;;;6.65;;
58069;SDS011;43863;52.256;21.048;2022-08-07T03:27:32;12.75;;;6.97;;
58069;SDS011;43863;52.256;21.048;2022-08-07T03:30:21;11.15;;;6.60;;
58069;SDS011;43863;52.256;21.048;2022-08-07T03:32:52;11.50;;;6.53;;
58069;SDS011;43863;52.256;21.048;2022-08-07T03:35:29;8.95;;;5.97;;
58069;SDS011;43863;52.256;21.048;2022-08-07T03:41:14;9.82;;;5.80;;
58069;SDS011;43863;52.256;21.048;2022-08-07T03:43:42;15.27;;;6.18;;
58069;SDS011;43863;52.256;21.048;2022-08-07T03:46:28;9.57;;;5.93;;
58069;SDS011;43863;52.256;21.048;2022-08-07T03:49:03;7.40;;;4.85;;
58069;SDS011;43863;52.256;21.048;2022-08-07T03:51:37;10.02;;;5.45;;
58069;SDS011;43863;52.256;21.048;2022-08-07T03:54:23;8.48;;;5.28;;
58069;SDS011;43863;52.256;21.048;2022-08-07T04:00:32;10.55;;;5.00;;
58069;SDS011;43863;52.256;21.048;2022-08-07T04:03:03;6.35;;;4.97;;
58069;SDS011;43863;52.256;21.048;2022-08-07T04:05:39;11.48;;;5.72;;
58069;SDS011;43863;52.256;21.048;2022-08-07T04:08:16;7.30;;;5.10;;
58069;SDS011;43863;52.256;21.048;2022-08-07T04:10:49;7.22;;;4.20;;
58069;SDS011;43863;52.256;21.048;2022-08-07T04:13:41;7.40;;;4.78;;
58069;SDS011;43863;52.256;21.048;2022-08-07T04:16:33;7.15;;;4.63;;
58069;SDS011;43863;52.256;21.048;2022-08-07T04:19:03;7.35;;;5.18;;
58069;SDS011;43863;52.256;21.048;2022-08-07T04:24:49;9.05;;;5.05;;
58069;SDS011;43863;52.256;21.048;2022-08-07T04:30:33;9.38;;;4.88;;
58069;SDS011;43863;52.256;21.048;2022-08-07T04:33:26;9.02;;;4.30;;
58069;SDS011;43863;52.256;21.048;2022-08-07T04:35:58;9.07;;;4.70;;
58069;SDS011;43863;52.256;21.048;2022-08-07T04:38:33;8.25;;;4.20;;
58069;SDS011;43863;52.256;21.048;2022-08-07T04:41:03;8.52;;;4.18;;
58069;SDS011;43863;52.256;21.048;2022-08-07T04:43:40;8.07;;;4.63;;
58069;SDS011;43863;52.256;21.048;2022-08-07T04:46:38;6.85;;;4.20;;
58069;SDS011;43863;52.256;21.048;2022-08-07T04:55:05;7.38;;;4.18;;
58069;SDS011;43863;52.256;21.048;2022-08-07T05:01:31;5.05;;;3.88;;
58069;SDS011;43863;52.256;21.048;2022-08-07T05:04:15;8.82;;;4.38;;
58069;SDS011;43863;52.256;21.048;2022-08-07T05:07:07;5.68;;;3.97;;
58069;SDS011;43863;52.256;21.048;2022-08-07T05:12:47;9.75;;;3.75;;
58069;SDS011;43863;52.256;21.048;2022-08-07T05:15:29;7.75;;;3.70;;
58069;SDS011;43863;52.256;21.048;2022-08-07T05:18:19;5.35;;;3.63;;
58069;SDS011;43863;52.256;21.048;2022-08-07T05:20:52;8.07;;;3.67;;
58069;SDS011;43863;52.256;21.048;2022-08-07T05:23:25;8.30;;;4.00;;
58069;SDS011;43863;52.256;21.048;2022-08-07T05:26:20;7.85;;;3.50;;
58069;SDS011;43863;52.256;21.048;2022-08-07T05:29:05;5.82;;;3.17;;
58069;SDS011;43863;52.256;21.048;2022-08-07T05:31:38;7.30;;;2.90;;
58069;SDS011;43863;52.256;21.048;2022-08-07T05:34:21;4.72;;;3.50;;
58069;SDS011;43863;52.256;21.048;2022-08-07T05:36:55;9.82;;;3.33;;
58069;SDS011;43863;52.256;21.048;2022-08-07T05:39:31;6.47;;;3.58;;
58069;SDS011;43863;52.256;21.048;2022-08-07T05:42:47;6.90;;;3.00;;
58069;SDS011;43863;52.256;21.048;2022-08-07T05:45:45;5.50;;;2.72;;
58069;SDS011;43863;52.256;21.048;2022-08-07T05:48:39;5.13;;;3.10;;
58069;SDS011;43863;52.256;21.048;2022-08-07T05:51:29;5.57;;;3.83;;
58069;SDS011;43863;52.256;21.048;2022-08-07T05:54:44;12.88;;;6.18;;
58069;SDS011;43863;52.256;21.048;2022-08-07T05:57:24;6.65;;;3.55;;
58069;SDS011;43863;52.256;21.048;2022-08-07T06:00:01;8.15;;;3.67;;
58069;SDS011;43863;52.256;21.048;2022-08-07T06:02:46;5.93;;;3.85;;
58069;SDS011;43863;52.256;21.048;2022-08-07T06:05:18;8.60;;;2.80;;
58069;SDS011;43863;52.256;21.048;2022-08-07T06:07:59;2.85;;;1.80;;
58069;SDS011;43863;52.256;21.048;2022-08-07T06:10:48;3.80;;;2.08;;
58069;SDS011;43863;52.256;21.048;2022-08-07T06:13:21;9.85;;;3.42;;
58069;SDS011;43863;52.256;21.048;2022-08-07T06:16:09;4.40;;;1.90;;
58069;SDS011;43863;52.256;21.048;2022-08-07T06:18:41;4.05;;;2.17;;
58069;SDS011;43863;52.256;21.048;2022-08-07T06:21:24;5.72;;;1.70;;
58069;SDS011;43863;52.256;21.048;2022-08-07T06:24:13;4.57;;;1.75;;
58069;SDS011;43863;52.256;21.048;2022-08-07T06:27:01;3.45;;;1.38;;
58069;SDS011;43863;52.256;21.048;2022-08-07T06:29:33;4.03;;;2.05;;
58069;SDS011;43863;52.256;21.048;2022-08-07T06:32:06;4.00;;;1.60;;
58069;SDS011;43863;52.256;21.048;2022-08-07T06:34:34;4.32;;;1.73;;
58069;SDS011;43863;52.256;21.048;2022-08-07T06:37:11;3.47;;;1.77;;
58069;SDS011;43863;52.256;21.048;2022-08-07T06:39:44;7.28;;;2.17;;
58069;SDS011;43863;52.256;21.048;2022-08-07T06:42:32;6.65;;;2.50;;
58069;SDS011;43863;52.256;21.048;2022-08-07T06:45:28;4.15;;;1.80;;
58069;SDS011;43863;52.256;21.048;2022-08-07T06:48:00;4.72;;;2.00;;
58069;SDS011;43863;52.256;21.048;2022-08-07T06:50:38;2.83;;;1.65;;
58069;SDS011;43863;52.256;21.048;2022-08-07T06:53:15;3.28;;;1.80;;
58069;SDS011;43863;52.256;21.048;2022-08-07T06:56:08;2.80;;;1.55;;
58069;SDS011;43863;52.256;21.048;2022-08-07T06:58:45;1.90;;;1.70;;
58069;SDS011;43863;52.256;21.048;2022-08-07T07:01:38;4.53;;;2.60;;
58069;SDS011;43863;52.256;21.048;2022-08-07T07:04:15;2.15;;;1.77;;
58069;SDS011;43863;52.256;21.048;2022-08-07T07:07:02;4.53;;;1.77;;
58069;SDS011;43863;52.256;21.048;2022-08-07T07:09:46;4.03;;;1.50;;
58069;SDS011;43863;52.256;21.048;2022-08-07T07:12:25;4.40;;;2.10;;
58069;SDS011;43863;52.256;21.048;2022-08-07T07:15:19;4.10;;;2.05;;
58069;SDS011;43863;52.256;21.048;2022-08-07T07:21:16;3.20;;;1.70;;
58069;SDS011;43863;52.256;21.048;2022-08-07T07:23:53;5.68;;;1.90;;
58069;SDS011;43863;52.256;21.048;2022-08-07T07:26:38;4.63;;;2.13;;
58069;SDS011;43863;52.256;21.048;2022-08-07T07:29:20;2.10;;;1.63;;
58069;SDS011;43863;52.256;21.048;2022-08-07T07:32:11;5.80;;;1.75;;
58069;SDS011;43863;52.256;21.048;2022-08-07T07:34:51;6.10;;;2.10;;
58069;SDS011;43863;52.256;21.048;2022-08-07T07:37:22;4.65;;;1.70;;
58069;SDS011;43863;52.256;21.048;2022-08-07T07:40:14;4.47;;;2.00;;
58069;SDS011;43863;52.256;21.048;2022-08-07T07:42:46;6.20;;;2.03;;
58069;SDS011;43863;52.256;21.048;2022-08-07T07:45:23;2.83;;;1.83;;
58069;SDS011;43863;52.256;21.048;2022-08-07T07:48:18;3.40;;;1.90;;
58069;SDS011;43863;52.256;21.048;2022-08-07T07:51:02;4.55;;;2.40;;
58069;SDS011;43863;52.256;21.048;2022-08-07T07:53:39;3.92;;;2.40;;
58069;SDS011;43863;52.256;21.048;2022-08-07T07:56:22;4.18;;;2.03;;
58069;SDS011;43863;52.256;21.048;2022-08-07T07:58:57;3.50;;;2.00;;
58069;SDS011;43863;52.256;21.048;2022-08-07T08:01:29;6.07;;;2.80;;
58069;SDS011;43863;52.256;21.048;2022-08-07T08:04:19;2.65;;;1.58;;
58069;SDS011;43863;52.256;21.048;2022-08-07T08:06:53;5.97;;;2.15;;
58069;SDS011;43863;52.256;21.048;2022-08-07T08:09:23;4.97;;;2.10;;
58069;SDS011;43863;52.256;21.048;2022-08-07T08:11:56;5.03;;;1.50;;
58069;SDS011;43863;52.256;21.048;2022-08-07T08:14:33;5.88;;;1.75;;
58069;SDS011;43863;52.256;21.048;2022-08-07T08:17:04;4.80;;;1.70;;
58069;SDS011;43863;52.256;21.048;2022-08-07T08:20:03;5.25;;;1.90;;
58069;SDS011;43863;52.256;21.048;2022-08-07T08:22:50;8.75;;;3.15;;
58069;SDS011;43863;52.256;21.048;2022-08-07T08:25:40;4.90;;;1.92;;
58069;SDS011;43863;52.256;21.048;2022-08-07T08:28:38;5.43;;;3.30;;
58069;SDS011;43863;52.256;21.048;2022-08-07T08:31:13;6.65;;;3.33;;
58069;SDS011;43863;52.256;21.048;2022-08-07T08:34:06;3.30;;;2.17;;
58069;SDS011;43863;52.256;21.048;2022-08-07T08:36:53;2.75;;;2.08;;
58069;SDS011;43863;52.256;21.048;2022-08-07T08:39:26;6.53;;;2.38;;
58069;SDS011;43863;52.256;21.048;2022-08-07T08:42:07;3.10;;;1.73;;
58069;SDS011;43863;52.256;21.048;2022-08-07T08:45:09;2.17;;;1.48;;
58069;SDS011;43863;52.256;21.048;2022-08-07T08:50:46;2.72;;;1.40;;
58069;SDS011;43863;52.256;21.048;2022-08-07T08:56:18;2.95;;;1.50;;
58069;SDS011;43863;52.256;21.048;2022-08-07T09:10:43;3.38;;;2.10;;
58069;SDS011;43863;52.256;21.048;2022-08-07T09:13:22;3.83;;;2.17;;
58069;SDS011;43863;52.256;21.048;2022-08-07T09:22:11;3.78;;;2.45;;
58069;SDS011;43863;52.256;21.048;2022-08-07T09:27:53;4.28;;;1.70;;
58069;SDS011;43863;52.256;21.048;2022-08-07T09:30:52;2.95;;;1.60;;
58069;SDS011;43863;52.256;21.048;2022-08-07T09:33:38;4.05;;;2.03;;
58069;SDS011;43863;52.256;21.048;2022-08-07T09:42:15;3.47;;;1.70;;
58069;SDS011;43863;52.256;21.048;2022-08-07T09:45:09;3.05;;;1.38;;
58069;SDS011;43863;52.256;21.048;2022-08-07T09:54:32;2.88;;;1.45;;
58069;SDS011;43863;52.256;21.048;2022-08-07T10:00:13;1.50;;;1.40;;
58069;SDS011;43863;52.256;21.048;2022-08-07T10:09:45;2.55;;;1.20;;
58069;SDS011;43863;52.256;21.048;2022-08-07T10:15:40;1.95;;;0.95;;
58069;SDS011;43863;52.256;21.048;2022-08-07T10:30:04;4.35;;;1.60;;
58069;SDS011;43863;52.256;21.048;2022-08-07T10:38:51;2.45;;;1.02;;
58069;SDS011;43863;52.256;21.048;2022-08-07T10:41:41;1.67;;;0.80;;
58069;SDS011;43863;52.256;21.048;2022-08-07T10:44:40;1.50;;;1.00;;
58069;SDS011;43863;52.256;21.048;2022-08-07T10:50:21;2.53;;;1.20;;
58069;SDS011;43863;52.256;21.048;2022-08-07T10:58:15;1.30;;;1.17;;
58069;SDS011;43863;52.256;21.048;2022-08-07T11:01:06;1.23;;;1.13;;
58069;SDS011;43863;52.256;21.048;2022-08-07T11:04:04;2.05;;;0.90;;
58069;SDS011;43863;52.256;21.048;2022-08-07T11:10:14;3.15;;;1.27;;
58069;SDS011;43863;52.256;21.048;2022-08-07T11:12:57;2.45;;;1.23;;
58069;SDS011;43863;52.256;21.048;2022-08-07T11:15:33;1.45;;;0.93;;
58069;SDS011;43863;52.256;21.048;2022-08-07T11:18:08;3.08;;;1.00;;
58069;SDS011;43863;52.256;21.048;2022-08-07T11:21:03;2.42;;;1.90;;
58069;SDS011;43863;52.256;21.048;2022-08-07T11:26:45;3.30;;;1.15;;
58069;SDS011;43863;52.256;21.048;2022-08-07T11:32:25;3.05;;;1.58;;
58069;SDS011;43863;52.256;21.048;2022-08-07T11:35:05;5.13;;;2.72;;
58069;SDS011;43863;52.256;21.048;2022-08-07T11:37:40;3.97;;;1.30;;
58069;SDS011;43863;52.256;21.048;2022-08-07T11:40:58;1.75;;;0.90;;
58069;SDS011;43863;52.256;21.048;2022-08-07T11:43:33;1.58;;;0.80;;
58069;SDS011;43863;52.256;21.048;2022-08-07T11:49:30;2.65;;;1.08;;
58069;SDS011;43863;52.256;21.048;2022-08-07T11:52:29;2.42;;;0.90;;
58069;SDS011;43863;52.256;21.048;2022-08-07T11:55:12;2.15;;;1.63;;
58069;SDS011;43863;52.256;21.048;2022-08-07T11:58:29;2.78;;;1.48;;
58069;SDS011;43863;52.256;21.048;2022-08-07T12:04:41;2.25;;;0.80;;
58069;SDS011;43863;52.256;21.048;2022-08-07T12:07:44;2.92;;;1.63;;
58069;SDS011;43863;52.256;21.048;2022-08-07T12:10:37;2.33;;;1.00;;
58069;SDS011;43863;52.256;21.048;2022-08-07T12:13:11;1.35;;;1.05;;
58069;SDS011;43863;52.256;21.048;2022-08-07T12:22:43;2.05;;;1.10;;
58069;SDS011;43863;52.256;21.048;2022-08-07T12:25:29;5.03;;;1.75;;
58069;SDS011;43863;52.256;21.048;2022-08-07T12:34:31;1.25;;;1.15;;
58069;SDS011;43863;52.256;21.048;2022-08-07T12:37:01;4.70;;;1.45;;
58069;SDS011;43863;52.256;21.048;2022-08-07T12:39:52;2.95;;;1.10;;
58069;SDS011;43863;52.256;21.048;2022-08-07T12:42:24;0.95;;;0.90;;
58069;SDS011;43863;52.256;21.048;2022-08-07T12:44:59;5.65;;;1.00;;
58069;SDS011;43863;52.256;21.048;2022-08-07T12:56:28;2.97;;;1.63;;
58069;SDS011;43863;52.256;21.048;2022-08-07T12:58:58;2.95;;;1.25;;
58069;SDS011;43863;52.256;21.048;2022-08-07T13:14:02;2.25;;;1.13;;
58069;SDS011;43863;52.256;21.048;2022-08-07T13:16:46;3.28;;;2.08;;
58069;SDS011;43863;52.256;21.048;2022-08-07T13:22:32;2.25;;;1.50;;
58069;SDS011;43863;52.256;21.048;2022-08-07T13:27:52;2.15;;;1.23;;
58069;SDS011;43863;52.256;21.048;2022-08-07T13:30:46;2.95;;;0.93;;
58069;SDS011;43863;52.256;21.048;2022-08-07T13:33:40;2.25;;;1.00;;
58069;SDS011;43863;52.256;21.048;2022-08-07T13:36:54;2.58;;;1.10;;
58069;SDS011;43863;52.256;21.048;2022-08-07T13:39:38;1.95;;;1.33;;
58069;SDS011;43863;52.256;21.048;2022-08-07T13:42:35;3.45;;;1.77;;
58069;SDS011;43863;52.256;21.048;2022-08-07T13:45:07;2.28;;;1.20;;
58069;SDS011;43863;52.256;21.048;2022-08-07T13:53:50;1.63;;;1.17;;
58069;SDS011;43863;52.256;21.048;2022-08-07T13:56:28;3.47;;;1.67;;
58069;SDS011;43863;52.256;21.048;2022-08-07T13:59:11;4.47;;;1.90;;
58069;SDS011;43863;52.256;21.048;2022-08-07T14:01:44;1.85;;;1.23;;
58069;SDS011;43863;52.256;21.048;2022-08-07T14:04:30;3.00;;;1.40;;
58069;SDS011;43863;52.256;21.048;2022-08-07T14:07:06;2.20;;;1.70;;
58069;SDS011;43863;52.256;21.048;2022-08-07T14:09:36;2.33;;;1.40;;
58069;SDS011;43863;52.256;21.048;2022-08-07T14:15:28;1.73;;;1.35;;
58069;SDS011;43863;52.256;21.048;2022-08-07T14:27:02;1.73;;;1.25;;
58069;SDS011;43863;52.256;21.048;2022-08-07T14:29:57;1.48;;;1.10;;
58069;SDS011;43863;52.256;21.048;2022-08-07T14:32:41;2.05;;;1.17;;
58069;SDS011;43863;52.256;21.048;2022-08-07T14:35:17;2.25;;;1.38;;
58069;SDS011;43863;52.256;21.048;2022-08-07T14:38:09;2.22;;;1.50;;
58069;SDS011;43863;52.256;21.048;2022-08-07T14:40:58;2.22;;;1.23;;
58069;SDS011;43863;52.256;21.048;2022-08-07T14:43:32;2.42;;;1.10;;
58069;SDS011;43863;52.256;21.048;2022-08-07T14:46:22;5.22;;;2.00;;
58069;SDS011;43863;52.256;21.048;2022-08-07T14:49:11;2.45;;;0.80;;
58069;SDS011;43863;52.256;21.048;2022-08-07T14:54:55;2.33;;;1.20;;
58069;SDS011;43863;52.256;21.048;2022-08-07T14:57:25;2.22;;;1.65;;
58069;SDS011;43863;52.256;21.048;2022-08-07T15:02:56;3.35;;;1.10;;
58069;SDS011;43863;52.256;21.048;2022-08-07T15:05:46;5.17;;;2.00;;
58069;SDS011;43863;52.256;21.048;2022-08-07T15:08:42;3.40;;;1.80;;
58069;SDS011;43863;52.256;21.048;2022-08-07T15:11:22;1.50;;;1.38;;
58069;SDS011;43863;52.256;21.048;2022-08-07T15:14:15;3.58;;;1.40;;
58069;SDS011;43863;52.256;21.048;2022-08-07T15:16:50;2.53;;;1.60;;
58069;SDS011;43863;52.256;21.048;2022-08-07T15:19:28;2.25;;;1.30;;
58069;SDS011;43863;52.256;21.048;2022-08-07T15:22:24;2.92;;;1.40;;
58069;SDS011;43863;52.256;21.048;2022-08-07T15:25:06;4.43;;;1.73;;
58069;SDS011;43863;52.256;21.048;2022-08-07T15:27:47;1.88;;;1.23;;
58069;SDS011;43863;52.256;21.048;2022-08-07T15:33:56;1.88;;;1.27;;
58069;SDS011;43863;52.256;21.048;2022-08-07T15:36:27;3.40;;;1.30;;
58069;SDS011;43863;52.256;21.048;2022-08-07T15:39:15;2.08;;;1.30;;
58069;SDS011;43863;52.256;21.048;2022-08-07T15:42:01;3.53;;;1.75;;
58069;SDS011;43863;52.256;21.048;2022-08-07T15:44:50;1.45;;;1.25;;
58069;SDS011;43863;52.256;21.048;2022-08-07T15:47:19;2.42;;;1.40;;
58069;SDS011;43863;52.256;21.048;2022-08-07T15:50:13;2.92;;;1.40;;
58069;SDS011;43863;52.256;21.048;2022-08-07T15:55:52;2.78;;;1.30;;
58069;SDS011;43863;52.256;21.048;2022-08-07T16:01:39;1.80;;;1.20;;
58069;SDS011;43863;52.256;21.048;2022-08-07T16:04:29;1.30;;;1.17;;
58069;SDS011;43863;52.256;21.048;2022-08-07T16:07:00;2.67;;;1.33;;
58069;SDS011;43863;52.256;21.048;2022-08-07T16:10:06;2.25;;;1.83;;
58069;SDS011;43863;52.256;21.048;2022-08-07T16:19:58;2.65;;;1.23;;
58069;SDS011;43863;52.256;21.048;2022-08-07T16:23:05;3.55;;;1.30;;
58069;SDS011;43863;52.256;21.048;2022-08-07T16:33:06;1.83;;;1.17;;
58069;SDS011;43863;52.256;21.048;2022-08-07T16:51:55;2.13;;;1.58;;
58069;SDS011;43863;52.256;21.048;2022-08-07T16:54:59;4.90;;;1.50;;
58069;SDS011;43863;52.256;21.048;2022-08-07T17:00:39;3.00;;;1.80;;
58069;SDS011;43863;52.256;21.048;2022-08-07T17:09:38;7.90;;;3.83;;
58069;SDS011;43863;52.256;21.048;2022-08-07T17:15:47;2.03;;;1.83;;
58069;SDS011;43863;52.256;21.048;2022-08-07T17:18:23;3.58;;;1.52;;
58069;SDS011;43863;52.256;21.048;2022-08-07T17:20:56;2.72;;;1.30;;
58069;SDS011;43863;52.256;21.048;2022-08-07T17:23:31;2.42;;;1.75;;
58069;SDS011;43863;52.256;21.048;2022-08-07T17:31:38;1.93;;;1.63;;
58069;SDS011;43863;52.256;21.048;2022-08-07T17:34:41;2.30;;;1.70;;
58069;SDS011;43863;52.256;21.048;2022-08-07T17:37:43;3.22;;;1.98;;
58069;SDS011;43863;52.256;21.048;2022-08-07T17:41:00;4.47;;;2.75;;
58069;SDS011;43863;52.256;21.048;2022-08-07T17:44:08;3.50;;;2.10;;
58069;SDS011;43863;52.256;21.048;2022-08-07T17:47:34;4.05;;;1.80;;
58069;SDS011;43863;52.256;21.048;2022-08-07T17:53:36;5.97;;;4.20;;
58069;SDS011;43863;52.256;21.048;2022-08-07T17:56:30;7.00;;;3.00;;
58069;SDS011;43863;52.256;21.048;2022-08-07T18:08:35;4.47;;;2.17;;
58069;SDS011;43863;52.256;21.048;2022-08-07T18:11:31;3.63;;;2.20;;
58069;SDS011;43863;52.256;21.048;2022-08-07T18:14:38;2.70;;;2.20;;
58069;SDS011;43863;52.256;21.048;2022-08-07T18:18:00;4.78;;;2.67;;
58069;SDS011;43863;52.256;21.048;2022-08-07T18:29:22;3.60;;;2.47;;
58069;SDS011;43863;52.256;21.048;2022-08-07T18:42:15;5.83;;;2.60;;
58069;SDS011;43863;52.256;21.048;2022-08-07T18:48:07;11.60;;;6.55;;
58069;SDS011;43863;52.256;21.048;2022-08-07T18:51:50;9.30;;;4.03;;
58069;SDS011;43863;52.256;21.048;2022-08-07T19:00:34;7.05;;;3.70;;
58069;SDS011;43863;52.256;21.048;2022-08-07T19:12:33;12.80;;;5.45;;
58069;SDS011;43863;52.256;21.048;2022-08-07T19:18:44;12.10;;;7.47;;
58069;SDS011;43863;52.256;21.048;2022-08-07T19:24:37;12.30;;;7.20;;
58069;SDS011;43863;52.256;21.048;2022-08-07T19:27:34;38.30;;;25.42;;
58069;SDS011;43863;52.256;21.048;2022-08-07T19:30:52;50.72;;;34.40;;
58069;SDS011;43863;52.256;21.048;2022-08-07T19:33:44;26.88;;;16.73;;
58069;SDS011;43863;52.256;21.048;2022-08-07T19:36:25;8.98;;;5.40;;
58069;SDS011;43863;52.256;21.048;2022-08-07T19:38:59;10.90;;;5.85;;
58069;SDS011;43863;52.256;21.048;2022-08-07T19:41:45;12.27;;;5.80;;
58069;SDS011;43863;52.256;21.048;2022-08-07T19:45:02;10.70;;;5.35;;
58069;SDS011;43863;52.256;21.048;2022-08-07T19:47:59;8.25;;;4.78;;
58069;SDS011;43863;52.256;21.048;2022-08-07T19:50:28;8.40;;;4.80;;
58069;SDS011;43863;52.256;21.048;2022-08-07T19:57:41;11.30;;;6.05;;
58069;SDS011;43863;52.256;21.048;2022-08-07T20:00:35;11.70;;;6.65;;
58069;SDS011;43863;52.256;21.048;2022-08-07T20:03:25;22.45;;;12.73;;
58069;SDS011;43863;52.256;21.048;2022-08-07T20:06:02;9.38;;;4.60;;
58069;SDS011;43863;52.256;21.048;2022-08-07T20:08:56;12.52;;;4.57;;
58069;SDS011;43863;52.256;21.048;2022-08-07T20:11:31;8.50;;;4.47;;
58069;SDS011;43863;52.256;21.048;2022-08-07T20:14:28;11.55;;;5.80;;
58069;SDS011;43863;52.256;21.048;2022-08-07T20:17:02;8.35;;;5.18;;
58069;SDS011;43863;52.256;21.048;2022-08-07T20:19:34;15.00;;;6.05;;
58069;SDS011;43863;52.256;21.048;2022-08-07T20:22:25;8.97;;;5.53;;
58069;SDS011;43863;52.256;21.048;2022-08-07T20:25:05;12.60;;;5.70;;
58069;SDS011;43863;52.256;21.048;2022-08-07T20:27:46;12.32;;;5.18;;
58069;SDS011;43863;52.256;21.048;2022-08-07T20:30:28;15.07;;;5.85;;
58069;SDS011;43863;52.256;21.048;2022-08-07T20:33:00;7.65;;;4.47;;
58069;SDS011;43863;52.256;21.048;2022-08-07T20:35:47;10.75;;;4.90;;
58069;SDS011;43863;52.256;21.048;2022-08-07T20:38:22;11.43;;;5.22;;
58069;SDS011;43863;52.256;21.048;2022-08-07T20:40:55;10.63;;;5.47;;
58069;SDS011;43863;52.256;21.048;2022-08-07T20:43:30;9.73;;;5.07;;
58069;SDS011;43863;52.256;21.048;2022-08-07T20:46:00;12.82;;;5.82;;
58069;SDS011;43863;52.256;21.048;2022-08-07T20:48:58;10.27;;;5.68;;
58069;SDS011;43863;52.256;21.048;2022-08-07T20:51:49;11.75;;;6.25;;
58069;SDS011;43863;52.256;21.048;2022-08-07T20:54:19;12.70;;;5.60;;
58069;SDS011;43863;52.256;21.048;2022-08-07T20:56:59;13.27;;;5.40;;
58069;SDS011;43863;52.256;21.048;2022-08-07T20:59:34;13.18;;;5.70;;
58069;SDS011;43863;52.256;21.048;2022-08-07T21:02:29;11.55;;;7.05;;
58069;SDS011;43863;52.256;21.048;2022-08-07T21:05:21;15.70;;;5.68;;
58069;SDS011;43863;52.256;21.048;2022-08-07T21:08:15;10.63;;;6.20;;
58069;SDS011;43863;52.256;21.048;2022-08-07T21:11:13;12.13;;;6.70;;
58069;SDS011;43863;52.256;21.048;2022-08-07T21:13:51;11.13;;;5.85;;
58069;SDS011;43863;52.256;21.048;2022-08-07T21:16:43;13.35;;;6.13;;
58069;SDS011;43863;52.256;21.048;2022-08-07T21:19:34;13.32;;;6.18;;
58069;SDS011;43863;52.256;21.048;2022-08-07T21:22:23;13.02;;;7.00;;
58069;SDS011;43863;52.256;21.048;2022-08-07T21:25:12;13.65;;;6.75;;
58069;SDS011;43863;52.256;21.048;2022-08-07T21:27:54;16.25;;;6.95;;
58069;SDS011;43863;52.256;21.048;2022-08-07T21:34:46;13.27;;;7.50;;
58069;SDS011;43863;52.256;21.048;2022-08-07T21:37:12;17.25;;;7.65;;
58069;SDS011;43863;52.256;21.048;2022-08-07T21:43:10;17.77;;;8.02;;
58069;SDS011;43863;52.256;21.048;2022-08-07T21:54:38;26.80;;;9.20;;
58069;SDS011;43863;52.256;21.048;2022-08-07T22:09:36;15.60;;;8.38;;
58069;SDS011;43863;52.256;21.048;2022-08-07T22:12:41;14.27;;;7.50;;
58069;SDS011;43863;52.256;21.048;2022-08-07T22:15:30;17.88;;;7.65;;
58069;SDS011;43863;52.256;21.048;2022-08-07T22:18:37;19.30;;;8.40;;
58069;SDS011;43863;52.256;21.048;2022-08-07T22:21:25;15.65;;;7.82;;
58069;SDS011;43863;52.256;21.048;2022-08-07T22:24:25;15.98;;;7.40;;
58069;SDS011;43863;52.256;21.048;2022-08-07T22:27:03;16.85;;;8.60;;
58069;SDS011;43863;52.256;21.048;2022-08-07T22:29:43;14.40;;;7.70;;
58069;SDS011;43863;52.256;21.048;2022-08-07T22:32:25;16.85;;;7.68;;